sensor_id;sensor_type;location;lat;lon;timestamp;P1;durP1;ratioP1;P2;durP2;ratioP2
12429;SDS011;6279;42.192;24.326;2022-07-24T00:01:23;13.13;;;7.27;;
12429;SDS011;6279;42.192;24.326;2022-07-24T00:03:49;13.40;;;7.23;;
12429;SDS011;6279;42.192;24.326;2022-07-24T00:06:14;17.97;;;7.40;;
12429;SDS011;6279;42.192;24.326;2022-07-24T00:08:40;10.10;;;6.83;;
12429;SDS011;6279;42.192;24.326;2022-07-24T00:11:05;14.53;;;7.20;;
12429;SDS011;6279;42.192;24.326;2022-07-24T00:13:31;15.57;;;7.70;;
12429;SDS011;6279;42.192;24.326;2022-07-24T00:15:56;15.77;;;7.80;;
12429;SDS011;6279;42.192;24.326;2022-07-24T00:18:22;14.43;;;7.83;;
12429;SDS011;6279;42.192;24.326;2022-07-24T00:20:47;11.40;;;7.17;;
12429;SDS011;6279;42.192;24.326;2022-07-24T00:23:12;17.40;;;7.57;;
12429;SDS011;6279;42.192;24.326;2022-07-24T00:25:38;16.33;;;7.00;;
12429;SDS011;6279;42.192;24.326;2022-07-24T00:28:03;11.17;;;7.07;;
12429;SDS011;6279;42.192;24.326;2022-07-24T00:30:29;14.60;;;6.93;;
12429;SDS011;6279;42.192;24.326;2022-07-24T00:32:54;13.30;;;7.43;;
12429;SDS011;6279;42.192;24.326;2022-07-24T00:35:20;14.77;;;7.13;;
12429;SDS011;6279;42.192;24.326;2022-07-24T00:37:46;15.83;;;7.27;;
12429;SDS011;6279;42.192;24.326;2022-07-24T00:40:12;12.13;;;7.53;;
12429;SDS011;6279;42.192;24.326;2022-07-24T00:42:38;10.03;;;6.47;;
12429;SDS011;6279;42.192;24.326;2022-07-24T00:45:04;13.33;;;6.60;;
12429;SDS011;6279;42.192;24.326;2022-07-24T00:47:30;10.83;;;6.53;;
12429;SDS011;6279;42.192;24.326;2022-07-24T00:49:55;15.83;;;6.93;;
12429;SDS011;6279;42.192;24.326;2022-07-24T00:52:21;12.70;;;6.97;;
12429;SDS011;6279;42.192;24.326;2022-07-24T00:54:46;10.27;;;6.70;;
12429;SDS011;6279;42.192;24.326;2022-07-24T00:57:11;10.03;;;6.90;;
12429;SDS011;6279;42.192;24.326;2022-07-24T00:59:37;14.83;;;6.90;;
12429;SDS011;6279;42.192;24.326;2022-07-24T01:02:02;15.53;;;7.37;;
12429;SDS011;6279;42.192;24.326;2022-07-24T01:04:28;11.93;;;6.50;;
12429;SDS011;6279;42.192;24.326;2022-07-24T01:06:53;11.60;;;6.47;;
12429;SDS011;6279;42.192;24.326;2022-07-24T01:09:19;11.87;;;6.90;;
12429;SDS011;6279;42.192;24.326;2022-07-24T01:11:45;11.27;;;6.83;;
12429;SDS011;6279;42.192;24.326;2022-07-24T01:14:10;13.57;;;7.30;;
12429;SDS011;6279;42.192;24.326;2022-07-24T01:16:38;10.63;;;6.30;;
12429;SDS011;6279;42.192;24.326;2022-07-24T01:19:04;11.97;;;7.03;;
12429;SDS011;6279;42.192;24.326;2022-07-24T01:21:29;11.63;;;6.83;;
12429;SDS011;6279;42.192;24.326;2022-07-24T01:23:55;11.67;;;6.87;;
12429;SDS011;6279;42.192;24.326;2022-07-24T01:26:20;11.40;;;6.73;;
12429;SDS011;6279;42.192;24.326;2022-07-24T01:28:46;9.83;;;7.23;;
12429;SDS011;6279;42.192;24.326;2022-07-24T01:31:11;13.10;;;7.10;;
12429;SDS011;6279;42.192;24.326;2022-07-24T01:33:36;13.67;;;7.23;;
12429;SDS011;6279;42.192;24.326;2022-07-24T01:36:02;13.77;;;7.20;;
12429;SDS011;6279;42.192;24.326;2022-07-24T01:38:28;14.67;;;7.23;;
12429;SDS011;6279;42.192;24.326;2022-07-24T01:40:53;11.70;;;7.10;;
12429;SDS011;6279;42.192;24.326;2022-07-24T01:43:19;12.47;;;7.50;;
12429;SDS011;6279;42.192;24.326;2022-07-24T01:45:44;11.03;;;7.33;;
12429;SDS011;6279;42.192;24.326;2022-07-24T01:48:10;12.93;;;7.30;;
12429;SDS011;6279;42.192;24.326;2022-07-24T01:50:36;11.60;;;7.20;;
12429;SDS011;6279;42.192;24.326;2022-07-24T01:53:01;11.53;;;6.83;;
12429;SDS011;6279;42.192;24.326;2022-07-24T01:55:27;11.07;;;7.27;;
12429;SDS011;6279;42.192;24.326;2022-07-24T01:57:53;14.80;;;7.20;;
12429;SDS011;6279;42.192;24.326;2022-07-24T02:00:19;13.33;;;8.13;;
12429;SDS011;6279;42.192;24.326;2022-07-24T02:02:44;15.10;;;7.03;;
12429;SDS011;6279;42.192;24.326;2022-07-24T02:05:11;13.13;;;7.23;;
12429;SDS011;6279;42.192;24.326;2022-07-24T02:07:38;11.27;;;7.40;;
12429;SDS011;6279;42.192;24.326;2022-07-24T02:10:04;11.63;;;7.80;;
12429;SDS011;6279;42.192;24.326;2022-07-24T02:12:29;17.53;;;7.90;;
12429;SDS011;6279;42.192;24.326;2022-07-24T02:14:55;10.57;;;7.03;;
12429;SDS011;6279;42.192;24.326;2022-07-24T02:17:20;10.10;;;7.23;;
12429;SDS011;6279;42.192;24.326;2022-07-24T02:19:46;12.17;;;6.97;;
12429;SDS011;6279;42.192;24.326;2022-07-24T02:22:11;12.73;;;7.27;;
12429;SDS011;6279;42.192;24.326;2022-07-24T02:24:37;10.33;;;6.60;;
12429;SDS011;6279;42.192;24.326;2022-07-24T02:27:02;13.33;;;7.10;;
12429;SDS011;6279;42.192;24.326;2022-07-24T02:29:27;15.03;;;6.83;;
12429;SDS011;6279;42.192;24.326;2022-07-24T02:31:53;10.47;;;6.33;;
12429;SDS011;6279;42.192;24.326;2022-07-24T02:34:18;13.57;;;7.00;;
12429;SDS011;6279;42.192;24.326;2022-07-24T02:36:44;14.30;;;7.13;;
12429;SDS011;6279;42.192;24.326;2022-07-24T02:39:09;12.83;;;6.73;;
12429;SDS011;6279;42.192;24.326;2022-07-24T02:41:35;10.40;;;6.57;;
12429;SDS011;6279;42.192;24.326;2022-07-24T02:44:00;8.97;;;6.90;;
12429;SDS011;6279;42.192;24.326;2022-07-24T02:46:26;13.83;;;7.23;;
12429;SDS011;6279;42.192;24.326;2022-07-24T02:48:51;12.63;;;6.90;;
12429;SDS011;6279;42.192;24.326;2022-07-24T02:51:16;8.83;;;6.73;;
12429;SDS011;6279;42.192;24.326;2022-07-24T02:53:42;12.67;;;7.50;;
12429;SDS011;6279;42.192;24.326;2022-07-24T02:56:07;8.90;;;6.83;;
12429;SDS011;6279;42.192;24.326;2022-07-24T02:58:33;13.60;;;7.07;;
12429;SDS011;6279;42.192;24.326;2022-07-24T03:00:59;13.90;;;7.10;;
12429;SDS011;6279;42.192;24.326;2022-07-24T03:03:24;13.77;;;6.90;;
12429;SDS011;6279;42.192;24.326;2022-07-24T03:05:50;14.97;;;7.40;;
12429;SDS011;6279;42.192;24.326;2022-07-24T03:08:15;11.50;;;6.60;;
12429;SDS011;6279;42.192;24.326;2022-07-24T03:10:41;13.67;;;7.17;;
12429;SDS011;6279;42.192;24.326;2022-07-24T03:13:06;11.93;;;7.50;;
12429;SDS011;6279;42.192;24.326;2022-07-24T03:15:32;11.33;;;8.17;;
12429;SDS011;6279;42.192;24.326;2022-07-24T03:17:57;15.00;;;8.67;;
12429;SDS011;6279;42.192;24.326;2022-07-24T03:20:24;12.27;;;7.53;;
12429;SDS011;6279;42.192;24.326;2022-07-24T03:22:52;10.37;;;7.83;;
12429;SDS011;6279;42.192;24.326;2022-07-24T03:25:18;14.07;;;6.77;;
12429;SDS011;6279;42.192;24.326;2022-07-24T03:27:44;13.13;;;6.87;;
12429;SDS011;6279;42.192;24.326;2022-07-24T03:30:11;14.40;;;7.50;;
12429;SDS011;6279;42.192;24.326;2022-07-24T03:32:37;17.30;;;7.57;;
12429;SDS011;6279;42.192;24.326;2022-07-24T03:35:02;10.07;;;7.20;;
12429;SDS011;6279;42.192;24.326;2022-07-24T03:37:28;11.27;;;6.53;;
12429;SDS011;6279;42.192;24.326;2022-07-24T03:39:54;14.40;;;7.27;;
12429;SDS011;6279;42.192;24.326;2022-07-24T03:42:20;17.03;;;7.10;;
12429;SDS011;6279;42.192;24.326;2022-07-24T03:44:45;12.60;;;6.80;;
12429;SDS011;6279;42.192;24.326;2022-07-24T03:47:11;9.43;;;6.43;;
12429;SDS011;6279;42.192;24.326;2022-07-24T03:49:36;10.63;;;6.73;;
12429;SDS011;6279;42.192;24.326;2022-07-24T03:52:02;16.50;;;6.90;;
12429;SDS011;6279;42.192;24.326;2022-07-24T03:54:28;11.53;;;6.53;;
12429;SDS011;6279;42.192;24.326;2022-07-24T03:56:53;13.47;;;6.53;;
12429;SDS011;6279;42.192;24.326;2022-07-24T03:59:19;10.90;;;6.27;;
12429;SDS011;6279;42.192;24.326;2022-07-24T04:01:44;10.80;;;6.33;;
12429;SDS011;6279;42.192;24.326;2022-07-24T04:04:10;11.23;;;5.87;;
12429;SDS011;6279;42.192;24.326;2022-07-24T04:06:35;15.03;;;6.53;;
12429;SDS011;6279;42.192;24.326;2022-07-24T04:09:02;16.83;;;7.13;;
12429;SDS011;6279;42.192;24.326;2022-07-24T04:11:28;10.93;;;7.13;;
12429;SDS011;6279;42.192;24.326;2022-07-24T04:13:54;10.20;;;6.50;;
12429;SDS011;6279;42.192;24.326;2022-07-24T04:16:19;8.83;;;6.60;;
12429;SDS011;6279;42.192;24.326;2022-07-24T04:18:45;12.43;;;7.07;;
12429;SDS011;6279;42.192;24.326;2022-07-24T04:21:10;8.80;;;6.43;;
12429;SDS011;6279;42.192;24.326;2022-07-24T04:23:36;11.80;;;6.77;;
12429;SDS011;6279;42.192;24.326;2022-07-24T04:26:01;9.83;;;7.33;;
12429;SDS011;6279;42.192;24.326;2022-07-24T04:28:27;11.33;;;6.80;;
12429;SDS011;6279;42.192;24.326;2022-07-24T04:30:52;11.40;;;6.50;;
12429;SDS011;6279;42.192;24.326;2022-07-24T04:33:17;13.63;;;7.23;;
12429;SDS011;6279;42.192;24.326;2022-07-24T04:35:43;11.20;;;6.80;;
12429;SDS011;6279;42.192;24.326;2022-07-24T04:38:08;11.90;;;7.10;;
12429;SDS011;6279;42.192;24.326;2022-07-24T04:40:34;11.27;;;6.90;;
12429;SDS011;6279;42.192;24.326;2022-07-24T04:42:59;15.73;;;7.93;;
12429;SDS011;6279;42.192;24.326;2022-07-24T04:45:24;11.23;;;7.73;;
12429;SDS011;6279;42.192;24.326;2022-07-24T04:47:50;10.30;;;6.80;;
12429;SDS011;6279;42.192;24.326;2022-07-24T04:50:15;9.67;;;7.03;;
12429;SDS011;6279;42.192;24.326;2022-07-24T04:52:41;11.10;;;6.70;;
12429;SDS011;6279;42.192;24.326;2022-07-24T04:55:07;11.10;;;6.50;;
12429;SDS011;6279;42.192;24.326;2022-07-24T04:57:33;9.93;;;6.30;;
12429;SDS011;6279;42.192;24.326;2022-07-24T04:59:59;11.20;;;6.60;;
12429;SDS011;6279;42.192;24.326;2022-07-24T05:02:24;10.03;;;6.27;;
12429;SDS011;6279;42.192;24.326;2022-07-24T05:04:49;13.87;;;6.47;;
12429;SDS011;6279;42.192;24.326;2022-07-24T05:07:15;9.87;;;6.00;;
12429;SDS011;6279;42.192;24.326;2022-07-24T05:09:40;10.47;;;5.93;;
12429;SDS011;6279;42.192;24.326;2022-07-24T05:12:06;9.48;;;6.30;;
12429;SDS011;6279;42.192;24.326;2022-07-24T05:14:31;13.98;;;6.38;;
12429;SDS011;6279;42.192;24.326;2022-07-24T05:16:57;11.00;;;6.45;;
12429;SDS011;6279;42.192;24.326;2022-07-24T05:19:22;10.60;;;6.38;;
12429;SDS011;6279;42.192;24.326;2022-07-24T05:21:48;9.68;;;6.45;;
12429;SDS011;6279;42.192;24.326;2022-07-24T05:24:13;15.43;;;7.15;;
12429;SDS011;6279;42.192;24.326;2022-07-24T05:26:38;13.20;;;6.60;;
12429;SDS011;6279;42.192;24.326;2022-07-24T05:29:04;11.07;;;6.80;;
12429;SDS011;6279;42.192;24.326;2022-07-24T05:31:32;10.90;;;6.25;;
12429;SDS011;6279;42.192;24.326;2022-07-24T05:33:58;10.82;;;6.65;;
12429;SDS011;6279;42.192;24.326;2022-07-24T05:36:24;14.98;;;7.72;;
12429;SDS011;6279;42.192;24.326;2022-07-24T05:38:50;15.85;;;10.20;;
12429;SDS011;6279;42.192;24.326;2022-07-24T05:41:15;13.73;;;7.93;;
12429;SDS011;6279;42.192;24.326;2022-07-24T05:43:41;9.93;;;6.90;;
12429;SDS011;6279;42.192;24.326;2022-07-24T05:46:07;10.48;;;6.07;;
12429;SDS011;6279;42.192;24.326;2022-07-24T05:48:32;9.15;;;5.82;;
12429;SDS011;6279;42.192;24.326;2022-07-24T05:50:58;11.20;;;6.07;;
12429;SDS011;6279;42.192;24.326;2022-07-24T05:53:24;11.52;;;6.40;;
12429;SDS011;6279;42.192;24.326;2022-07-24T05:55:50;10.75;;;6.18;;
12429;SDS011;6279;42.192;24.326;2022-07-24T05:58:15;7.90;;;5.63;;
12429;SDS011;6279;42.192;24.326;2022-07-24T06:00:42;12.15;;;6.40;;
12429;SDS011;6279;42.192;24.326;2022-07-24T06:03:07;9.70;;;5.88;;
12429;SDS011;6279;42.192;24.326;2022-07-24T06:05:33;11.35;;;5.75;;
12429;SDS011;6279;42.192;24.326;2022-07-24T06:07:58;12.02;;;6.40;;
12429;SDS011;6279;42.192;24.326;2022-07-24T06:10:23;11.05;;;6.38;;
12429;SDS011;6279;42.192;24.326;2022-07-24T06:12:49;10.85;;;6.20;;
12429;SDS011;6279;42.192;24.326;2022-07-24T06:15:17;7.47;;;6.03;;
12429;SDS011;6279;42.192;24.326;2022-07-24T06:17:43;11.05;;;5.82;;
12429;SDS011;6279;42.192;24.326;2022-07-24T06:20:10;12.50;;;8.10;;
12429;SDS011;6279;42.192;24.326;2022-07-24T06:22:37;14.90;;;6.90;;
12429;SDS011;6279;42.192;24.326;2022-07-24T06:25:05;10.25;;;6.28;;
12429;SDS011;6279;42.192;24.326;2022-07-24T06:27:31;10.48;;;5.80;;
12429;SDS011;6279;42.192;24.326;2022-07-24T06:29:56;8.05;;;5.90;;
12429;SDS011;6279;42.192;24.326;2022-07-24T06:32:22;9.35;;;5.90;;
12429;SDS011;6279;42.192;24.326;2022-07-24T06:34:47;12.50;;;5.95;;
12429;SDS011;6279;42.192;24.326;2022-07-24T06:37:12;10.35;;;6.05;;
12429;SDS011;6279;42.192;24.326;2022-07-24T06:39:38;14.05;;;6.30;;
12429;SDS011;6279;42.192;24.326;2022-07-24T06:42:03;15.73;;;5.85;;
12429;SDS011;6279;42.192;24.326;2022-07-24T06:44:29;8.55;;;5.72;;
12429;SDS011;6279;42.192;24.326;2022-07-24T06:46:54;11.73;;;5.80;;
12429;SDS011;6279;42.192;24.326;2022-07-24T06:49:19;10.73;;;5.25;;
12429;SDS011;6279;42.192;24.326;2022-07-24T06:51:45;8.15;;;5.60;;
12429;SDS011;6279;42.192;24.326;2022-07-24T06:54:12;8.25;;;5.13;;
12429;SDS011;6279;42.192;24.326;2022-07-24T06:56:38;8.75;;;5.80;;
12429;SDS011;6279;42.192;24.326;2022-07-24T06:59:03;8.32;;;5.57;;
12429;SDS011;6279;42.192;24.326;2022-07-24T07:01:29;10.90;;;5.45;;
12429;SDS011;6279;42.192;24.326;2022-07-24T07:03:54;8.93;;;5.75;;
12429;SDS011;6279;42.192;24.326;2022-07-24T07:06:21;10.27;;;5.72;;
12429;SDS011;6279;42.192;24.326;2022-07-24T07:08:46;10.85;;;5.38;;
12429;SDS011;6279;42.192;24.326;2022-07-24T07:11:12;7.03;;;4.95;;
12429;SDS011;6279;42.192;24.326;2022-07-24T07:13:37;13.48;;;6.22;;
12429;SDS011;6279;42.192;24.326;2022-07-24T07:16:03;11.40;;;9.13;;
12429;SDS011;6279;42.192;24.326;2022-07-24T07:18:29;10.82;;;6.30;;
12429;SDS011;6279;42.192;24.326;2022-07-24T07:20:54;12.07;;;5.88;;
12429;SDS011;6279;42.192;24.326;2022-07-24T07:23:23;9.98;;;5.60;;
12429;SDS011;6279;42.192;24.326;2022-07-24T07:25:51;6.38;;;4.90;;
12429;SDS011;6279;42.192;24.326;2022-07-24T07:28:18;9.27;;;5.60;;
12429;SDS011;6279;42.192;24.326;2022-07-24T07:30:43;7.03;;;4.95;;
12429;SDS011;6279;42.192;24.326;2022-07-24T07:33:09;8.35;;;5.25;;
12429;SDS011;6279;42.192;24.326;2022-07-24T07:35:34;9.23;;;4.75;;
12429;SDS011;6279;42.192;24.326;2022-07-24T07:38:00;6.32;;;4.80;;
12429;SDS011;6279;42.192;24.326;2022-07-24T07:40:25;8.23;;;4.90;;
12429;SDS011;6279;42.192;24.326;2022-07-24T07:42:51;7.93;;;4.80;;
12429;SDS011;6279;42.192;24.326;2022-07-24T07:45:16;5.78;;;4.35;;
12429;SDS011;6279;42.192;24.326;2022-07-24T07:47:42;8.52;;;4.70;;
12429;SDS011;6279;42.192;24.326;2022-07-24T07:50:08;8.45;;;4.63;;
12429;SDS011;6279;42.192;24.326;2022-07-24T07:52:34;7.45;;;4.53;;
12429;SDS011;6279;42.192;24.326;2022-07-24T07:55:00;5.88;;;4.07;;
12429;SDS011;6279;42.192;24.326;2022-07-24T07:57:25;5.82;;;4.18;;
12429;SDS011;6279;42.192;24.326;2022-07-24T07:59:50;10.27;;;4.40;;
12429;SDS011;6279;42.192;24.326;2022-07-24T08:02:16;7.53;;;4.28;;
12429;SDS011;6279;42.192;24.326;2022-07-24T08:04:41;9.38;;;4.80;;
12429;SDS011;6279;42.192;24.326;2022-07-24T08:07:07;7.00;;;4.25;;
12429;SDS011;6279;42.192;24.326;2022-07-24T08:09:32;7.70;;;4.50;;
12429;SDS011;6279;42.192;24.326;2022-07-24T08:11:58;10.93;;;4.80;;
12429;SDS011;6279;42.192;24.326;2022-07-24T08:14:23;12.52;;;4.50;;
12429;SDS011;6279;42.192;24.326;2022-07-24T08:16:48;8.25;;;4.22;;
12429;SDS011;6279;42.192;24.326;2022-07-24T08:19:14;8.07;;;4.15;;
12429;SDS011;6279;42.192;24.326;2022-07-24T08:21:39;5.63;;;3.95;;
12429;SDS011;6279;42.192;24.326;2022-07-24T08:24:05;10.70;;;4.53;;
12429;SDS011;6279;42.192;24.326;2022-07-24T08:26:31;4.80;;;4.30;;
12429;SDS011;6279;42.192;24.326;2022-07-24T08:28:57;9.65;;;4.38;;
12429;SDS011;6279;42.192;24.326;2022-07-24T08:31:24;11.52;;;4.70;;
12429;SDS011;6279;42.192;24.326;2022-07-24T08:33:50;10.85;;;4.80;;
12429;SDS011;6279;42.192;24.326;2022-07-24T08:36:16;10.32;;;4.22;;
12429;SDS011;6279;42.192;24.326;2022-07-24T08:38:41;6.72;;;4.22;;
12429;SDS011;6279;42.192;24.326;2022-07-24T08:41:07;5.90;;;4.10;;
12429;SDS011;6279;42.192;24.326;2022-07-24T08:43:32;9.48;;;4.28;;
12429;SDS011;6279;42.192;24.326;2022-07-24T08:45:58;9.15;;;4.28;;
12429;SDS011;6279;42.192;24.326;2022-07-24T08:48:26;7.53;;;4.43;;
12429;SDS011;6279;42.192;24.326;2022-07-24T08:50:52;6.18;;;4.47;;
12429;SDS011;6279;42.192;24.326;2022-07-24T08:53:21;8.73;;;4.70;;
12429;SDS011;6279;42.192;24.326;2022-07-24T08:55:47;8.23;;;4.03;;
12429;SDS011;6279;42.192;24.326;2022-07-24T08:58:13;10.30;;;4.40;;
12429;SDS011;6279;42.192;24.326;2022-07-24T09:00:39;5.75;;;4.15;;
12429;SDS011;6279;42.192;24.326;2022-07-24T09:03:04;8.55;;;4.20;;
12429;SDS011;6279;42.192;24.326;2022-07-24T09:05:30;4.93;;;3.90;;
12429;SDS011;6279;42.192;24.326;2022-07-24T09:08:06;8.07;;;3.88;;
12429;SDS011;6279;42.192;24.326;2022-07-24T09:10:35;8.07;;;4.40;;
12429;SDS011;6279;42.192;24.326;2022-07-24T09:13:11;7.45;;;4.30;;
12429;SDS011;6279;42.192;24.326;2022-07-24T09:15:47;5.82;;;4.18;;
12429;SDS011;6279;42.192;24.326;2022-07-24T09:18:27;5.85;;;4.53;;
12429;SDS011;6279;42.192;24.326;2022-07-24T09:21:20;9.50;;;4.60;;
12429;SDS011;6279;42.192;24.326;2022-07-24T09:23:45;10.65;;;3.80;;
12429;SDS011;6279;42.192;24.326;2022-07-24T09:26:10;8.55;;;4.15;;
12429;SDS011;6279;42.192;24.326;2022-07-24T09:31:57;6.72;;;3.72;;
12429;SDS011;6279;42.192;24.326;2022-07-24T09:34:23;6.18;;;4.30;;
12429;SDS011;6279;42.192;24.326;2022-07-24T09:36:54;8.05;;;4.05;;
12429;SDS011;6279;42.192;24.326;2022-07-24T09:39:20;8.98;;;4.32;;
12429;SDS011;6279;42.192;24.326;2022-07-24T09:41:52;6.90;;;4.20;;
12429;SDS011;6279;42.192;24.326;2022-07-24T09:44:19;11.20;;;4.15;;
12429;SDS011;6279;42.192;24.326;2022-07-24T09:46:48;7.03;;;4.70;;
12429;SDS011;6279;42.192;24.326;2022-07-24T09:49:23;10.13;;;4.70;;
12429;SDS011;6279;42.192;24.326;2022-07-24T09:54:41;9.30;;;4.55;;
12429;SDS011;6279;42.192;24.326;2022-07-24T09:57:23;8.18;;;4.68;;
12429;SDS011;6279;42.192;24.326;2022-07-24T09:59:51;8.77;;;4.55;;
12429;SDS011;6279;42.192;24.326;2022-07-24T10:02:27;10.07;;;4.30;;
12429;SDS011;6279;42.192;24.326;2022-07-24T10:04:55;5.90;;;4.00;;
12429;SDS011;6279;42.192;24.326;2022-07-24T10:07:21;9.75;;;4.18;;
12429;SDS011;6279;42.192;24.326;2022-07-24T10:09:49;8.18;;;3.65;;
12429;SDS011;6279;42.192;24.326;2022-07-24T10:12:20;8.00;;;4.00;;
12429;SDS011;6279;42.192;24.326;2022-07-24T10:14:47;6.05;;;3.88;;
12429;SDS011;6279;42.192;24.326;2022-07-24T10:17:15;7.93;;;4.40;;
12429;SDS011;6279;42.192;24.326;2022-07-24T10:19:44;6.30;;;3.50;;
12429;SDS011;6279;42.192;24.326;2022-07-24T10:22:12;5.20;;;3.40;;
12429;SDS011;6279;42.192;24.326;2022-07-24T10:27:27;6.53;;;3.33;;
12429;SDS011;6279;42.192;24.326;2022-07-24T10:29:57;7.22;;;3.55;;
12429;SDS011;6279;42.192;24.326;2022-07-24T10:32:25;6.30;;;3.80;;
12429;SDS011;6279;42.192;24.326;2022-07-24T10:35:04;5.68;;;3.50;;
12429;SDS011;6279;42.192;24.326;2022-07-24T10:45:30;4.68;;;3.50;;
12429;SDS011;6279;42.192;24.326;2022-07-24T10:47:56;12.52;;;4.18;;
12429;SDS011;6279;42.192;24.326;2022-07-24T10:50:22;6.35;;;3.63;;
12429;SDS011;6279;42.192;24.326;2022-07-24T10:52:48;4.90;;;3.22;;
12429;SDS011;6279;42.192;24.326;2022-07-24T10:55:24;8.02;;;3.60;;
12429;SDS011;6279;42.192;24.326;2022-07-24T10:58:00;10.95;;;3.50;;
12429;SDS011;6279;42.192;24.326;2022-07-24T11:00:32;6.00;;;4.00;;
12429;SDS011;6279;42.192;24.326;2022-07-24T11:03:44;5.72;;;3.60;;
12429;SDS011;6279;42.192;24.326;2022-07-24T11:06:37;7.05;;;4.00;;
12429;SDS011;6279;42.192;24.326;2022-07-24T11:09:02;6.15;;;3.92;;
12429;SDS011;6279;42.192;24.326;2022-07-24T11:11:28;7.53;;;4.07;;
12429;SDS011;6279;42.192;24.326;2022-07-24T11:13:54;9.43;;;3.80;;
12429;SDS011;6279;42.192;24.326;2022-07-24T11:16:30;10.25;;;4.55;;
12429;SDS011;6279;42.192;24.326;2022-07-24T11:21:29;8.77;;;4.53;;
12429;SDS011;6279;42.192;24.326;2022-07-24T11:26:40;7.78;;;4.28;;
12429;SDS011;6279;42.192;24.326;2022-07-24T11:31:42;6.53;;;4.25;;
12429;SDS011;6279;42.192;24.326;2022-07-24T11:34:09;8.68;;;4.18;;
12429;SDS011;6279;42.192;24.326;2022-07-24T11:36:35;7.25;;;4.43;;
12429;SDS011;6279;42.192;24.326;2022-07-24T11:39:05;6.45;;;4.63;;
12429;SDS011;6279;42.192;24.326;2022-07-24T11:41:43;5.60;;;3.92;;
12429;SDS011;6279;42.192;24.326;2022-07-24T11:47:04;4.78;;;3.90;;
12429;SDS011;6279;42.192;24.326;2022-07-24T11:49:44;6.38;;;4.60;;
12429;SDS011;6279;42.192;24.326;2022-07-24T11:54:48;8.10;;;4.28;;
12429;SDS011;6279;42.192;24.326;2022-07-24T11:59:52;6.60;;;4.45;;
12429;SDS011;6279;42.192;24.326;2022-07-24T12:02:20;8.98;;;4.68;;
12429;SDS011;6279;42.192;24.326;2022-07-24T12:04:46;4.82;;;4.32;;
12429;SDS011;6279;42.192;24.326;2022-07-24T12:07:14;6.28;;;4.35;;
12429;SDS011;6279;42.192;24.326;2022-07-24T12:09:48;7.45;;;4.70;;
12429;SDS011;6279;42.192;24.326;2022-07-24T12:12:26;6.03;;;4.40;;
12429;SDS011;6279;42.192;24.326;2022-07-24T12:17:31;6.38;;;4.82;;
12429;SDS011;6279;42.192;24.326;2022-07-24T12:20:00;5.50;;;4.55;;
12429;SDS011;6279;42.192;24.326;2022-07-24T12:22:27;6.80;;;4.38;;
12429;SDS011;6279;42.192;24.326;2022-07-24T12:24:54;6.00;;;4.47;;
12429;SDS011;6279;42.192;24.326;2022-07-24T12:27:32;5.60;;;4.32;;
12429;SDS011;6279;42.192;24.326;2022-07-24T12:35:22;5.70;;;4.35;;
12429;SDS011;6279;42.192;24.326;2022-07-24T12:37:48;5.20;;;4.70;;
12429;SDS011;6279;42.192;24.326;2022-07-24T12:40:27;7.75;;;4.30;;
12429;SDS011;6279;42.192;24.326;2022-07-24T12:42:59;5.65;;;4.68;;
12429;SDS011;6279;42.192;24.326;2022-07-24T12:45:26;12.45;;;5.28;;
12429;SDS011;6279;42.192;24.326;2022-07-24T12:48:08;6.18;;;4.25;;
12429;SDS011;6279;42.192;24.326;2022-07-24T12:50:33;7.15;;;4.57;;
12429;SDS011;6279;42.192;24.326;2022-07-24T12:53:03;6.68;;;4.35;;
12429;SDS011;6279;42.192;24.326;2022-07-24T12:55:32;4.90;;;4.30;;
12429;SDS011;6279;42.192;24.326;2022-07-24T12:58:02;6.55;;;4.40;;
12429;SDS011;6279;42.192;24.326;2022-07-24T13:00:30;6.28;;;4.65;;
12429;SDS011;6279;42.192;24.326;2022-07-24T13:02:56;7.47;;;4.45;;
12429;SDS011;6279;42.192;24.326;2022-07-24T13:08:03;5.43;;;4.00;;
12429;SDS011;6279;42.192;24.326;2022-07-24T13:10:28;7.30;;;4.35;;
12429;SDS011;6279;42.192;24.326;2022-07-24T13:12:54;4.80;;;4.38;;
12429;SDS011;6279;42.192;24.326;2022-07-24T13:15:20;4.95;;;4.43;;
12429;SDS011;6279;42.192;24.326;2022-07-24T13:17:45;7.28;;;4.40;;
12429;SDS011;6279;42.192;24.326;2022-07-24T13:20:11;5.20;;;4.70;;
12429;SDS011;6279;42.192;24.326;2022-07-24T13:22:36;5.53;;;4.63;;
12429;SDS011;6279;42.192;24.326;2022-07-24T13:25:02;8.38;;;4.93;;
12429;SDS011;6279;42.192;24.326;2022-07-24T13:27:32;5.78;;;4.43;;
12429;SDS011;6279;42.192;24.326;2022-07-24T13:29:57;6.88;;;4.30;;
12429;SDS011;6279;42.192;24.326;2022-07-24T13:32:23;5.53;;;4.65;;
12429;SDS011;6279;42.192;24.326;2022-07-24T13:34:49;5.03;;;4.28;;
12429;SDS011;6279;42.192;24.326;2022-07-24T13:37:15;8.73;;;4.85;;
12429;SDS011;6279;42.192;24.326;2022-07-24T13:39:40;8.30;;;4.40;;
12429;SDS011;6279;42.192;24.326;2022-07-24T13:42:08;9.52;;;4.10;;
12429;SDS011;6279;42.192;24.326;2022-07-24T13:44:33;9.63;;;4.40;;
12429;SDS011;6279;42.192;24.326;2022-07-24T13:46:59;12.00;;;4.20;;
12429;SDS011;6279;42.192;24.326;2022-07-24T13:49:24;4.85;;;4.20;;
12429;SDS011;6279;42.192;24.326;2022-07-24T13:51:50;5.15;;;4.22;;
12429;SDS011;6279;42.192;24.326;2022-07-24T13:54:15;6.50;;;4.60;;
12429;SDS011;6279;42.192;24.326;2022-07-24T13:56:41;5.18;;;4.68;;
12429;SDS011;6279;42.192;24.326;2022-07-24T13:59:07;5.38;;;4.75;;
12429;SDS011;6279;42.192;24.326;2022-07-24T14:01:32;6.93;;;5.13;;
12429;SDS011;6279;42.192;24.326;2022-07-24T14:03:58;8.88;;;4.97;;
12429;SDS011;6279;42.192;24.326;2022-07-24T14:06:23;5.20;;;4.72;;
12429;SDS011;6279;42.192;24.326;2022-07-24T14:08:49;5.95;;;5.00;;
12429;SDS011;6279;42.192;24.326;2022-07-24T14:11:15;5.07;;;4.28;;
12429;SDS011;6279;42.192;24.326;2022-07-24T14:13:40;6.72;;;4.45;;
12429;SDS011;6279;42.192;24.326;2022-07-24T14:16:06;6.40;;;4.60;;
12429;SDS011;6279;42.192;24.326;2022-07-24T14:18:31;5.15;;;4.60;;
12429;SDS011;6279;42.192;24.326;2022-07-24T14:20:57;6.55;;;4.93;;
12429;SDS011;6279;42.192;24.326;2022-07-24T14:23:22;4.93;;;4.38;;
12429;SDS011;6279;42.192;24.326;2022-07-24T14:25:48;5.40;;;4.70;;
12429;SDS011;6279;42.192;24.326;2022-07-24T14:28:13;6.10;;;5.05;;
12429;SDS011;6279;42.192;24.326;2022-07-24T14:30:39;6.72;;;5.25;;
12429;SDS011;6279;42.192;24.326;2022-07-24T14:33:05;7.18;;;4.50;;
12429;SDS011;6279;42.192;24.326;2022-07-24T14:35:30;7.22;;;6.53;;
12429;SDS011;6279;42.192;24.326;2022-07-24T14:37:56;5.78;;;5.28;;
12429;SDS011;6279;42.192;24.326;2022-07-24T14:40:22;9.60;;;6.22;;
12429;SDS011;6279;42.192;24.326;2022-07-24T14:42:48;7.35;;;4.80;;
12429;SDS011;6279;42.192;24.326;2022-07-24T14:45:13;5.53;;;4.82;;
12429;SDS011;6279;42.192;24.326;2022-07-24T14:47:39;5.55;;;5.03;;
12429;SDS011;6279;42.192;24.326;2022-07-24T14:50:08;7.15;;;5.03;;
12429;SDS011;6279;42.192;24.326;2022-07-24T14:52:35;7.10;;;4.93;;
12429;SDS011;6279;42.192;24.326;2022-07-24T14:55:01;5.03;;;4.57;;
12429;SDS011;6279;42.192;24.326;2022-07-24T14:57:26;5.20;;;4.70;;
12429;SDS011;6279;42.192;24.326;2022-07-24T14:59:52;9.05;;;4.75;;
12429;SDS011;6279;42.192;24.326;2022-07-24T15:02:17;5.53;;;4.93;;
12429;SDS011;6279;42.192;24.326;2022-07-24T15:04:42;5.72;;;4.65;;
12429;SDS011;6279;42.192;24.326;2022-07-24T15:07:08;5.68;;;4.43;;
12429;SDS011;6279;42.192;24.326;2022-07-24T15:09:34;7.78;;;4.53;;
12429;SDS011;6279;42.192;24.326;2022-07-24T15:11:59;7.40;;;5.03;;
12429;SDS011;6279;42.192;24.326;2022-07-24T15:14:24;9.30;;;5.10;;
12429;SDS011;6279;42.192;24.326;2022-07-24T15:16:50;5.88;;;4.95;;
12429;SDS011;6279;42.192;24.326;2022-07-24T15:19:15;8.63;;;5.05;;
12429;SDS011;6279;42.192;24.326;2022-07-24T15:21:41;7.15;;;5.13;;